createdAt,value
2022-10-28T00:00:12.485Z,101820.00
2022-10-28T00:06:16.082Z,101836.00
2022-10-28T00:12:18.487Z,101831.00
2022-10-28T00:18:20.909Z,101825.00
2022-10-28T00:24:23.246Z,101830.00
2022-10-28T00:30:25.487Z,101827.00
2022-10-28T00:36:32.111Z,101822.00
2022-10-28T00:42:34.245Z,101825.00
2022-10-28T00:48:41.520Z,101821.00
2022-10-28T00:54:45.356Z,101823.00
2022-10-28T01:00:47.659Z,101831.00
2022-10-28T01:06:50.908Z,101829.00
2022-10-28T01:13:30.406Z,101825.00
2022-10-28T01:19:59.898Z,101823.00
2022-10-28T01:26:39.252Z,101825.00
2022-10-28T01:33:05.023Z,101821.00
2022-10-28T01:39:12.881Z,101823.00
2022-10-28T01:45:59.674Z,101819.00
2022-10-28T01:52:05.326Z,101813.00
2022-10-28T01:58:11.504Z,101805.00
2022-10-28T02:04:13.611Z,101814.00
2022-10-28T02:10:23.187Z,101813.00
2022-10-28T02:16:32.183Z,101815.00
2022-10-28T02:22:49.078Z,101802.00
2022-10-28T02:29:09.943Z,101793.00
2022-10-28T02:35:20.855Z,101796.00
2022-10-28T02:41:45.891Z,101810.00
2022-10-28T02:47:53.965Z,101808.00
2022-10-28T02:54:02.479Z,101811.00
2022-10-28T03:00:11.590Z,101812.00
2022-10-28T03:06:14.317Z,101813.00
2022-10-28T03:12:16.457Z,101819.00
2022-10-28T03:18:18.592Z,101816.00
2022-10-28T03:24:20.748Z,101825.00
2022-10-28T03:30:22.802Z,101825.00
2022-10-28T03:36:24.902Z,101829.00
2022-10-28T03:42:27.158Z,101828.00
2022-10-28T03:48:29.326Z,101828.00
2022-10-28T03:54:31.269Z,101828.00
2022-10-28T04:00:33.508Z,101839.00
2022-10-28T04:06:35.831Z,101830.00
2022-10-28T04:12:37.837Z,101827.00
2022-10-28T04:18:39.915Z,101822.00
2022-10-28T04:24:41.938Z,101824.00
2022-10-28T04:30:43.967Z,101833.00
2022-10-28T04:36:46.063Z,101831.00
2022-10-28T04:42:48.694Z,101837.00
2022-10-28T04:48:50.979Z,101838.00
2022-10-28T04:54:53.300Z,101846.00
2022-10-28T05:00:55.526Z,101844.00
2022-10-28T05:06:57.776Z,101834.00
2022-10-28T05:12:59.889Z,101838.00
2022-10-28T05:19:01.981Z,101836.00
2022-10-28T05:25:05.172Z,101845.00
2022-10-28T05:31:07.248Z,101851.00
2022-10-28T05:37:09.275Z,101834.00
2022-10-28T05:43:11.426Z,101855.00
2022-10-28T05:49:13.611Z,101865.00
2022-10-28T05:55:16.581Z,101872.00
2022-10-28T06:01:18.658Z,101857.00
2022-10-28T06:07:20.729Z,101856.00
2022-10-28T06:13:27.741Z,101846.00
2022-10-28T06:19:29.964Z,101819.00
2022-10-28T06:25:32.008Z,101786.00
2022-10-28T06:31:34.067Z,101763.00
2022-10-28T06:37:36.218Z,101710.00
2022-10-28T06:43:38.276Z,101807.00
2022-10-28T06:49:41.838Z,101872.00
2022-10-28T06:55:48.957Z,101895.00
2022-10-28T07:01:51.165Z,101887.00
2022-10-28T07:07:54.231Z,101882.00
2022-10-28T07:13:56.690Z,101907.00
2022-10-28T07:19:58.695Z,101731.00
2022-10-28T07:26:01.172Z,101815.00
2022-10-28T07:32:03.748Z,101882.00
2022-10-28T07:38:05.607Z,101870.00
2022-10-28T07:44:08.092Z,101795.00
2022-10-28T07:50:10.825Z,101875.00
2022-10-28T07:56:16.086Z,101864.00
2022-10-28T08:02:20.519Z,101736.00
2022-10-28T08:08:22.585Z,101752.00
2022-10-28T08:14:24.549Z,101884.00
2022-10-28T08:20:26.573Z,101914.00
2022-10-28T08:26:28.621Z,101902.00
2022-10-28T08:32:30.668Z,101911.00
2022-10-28T08:38:32.728Z,101906.00
2022-10-28T08:45:17.073Z,101905.00
2022-10-28T08:51:43.400Z,101916.00
2022-10-28T08:57:56.334Z,101902.00
2022-10-28T09:04:00.660Z,101899.00
2022-10-28T09:10:05.634Z,101891.00
2022-10-28T09:16:21.667Z,101893.00
2022-10-28T09:22:29.595Z,101877.00
2022-10-28T09:29:03.855Z,101876.00
2022-10-28T09:35:15.580Z,101862.00
2022-10-28T09:41:21.883Z,101861.00
2022-10-28T09:47:46.514Z,101848.00
2022-10-28T09:53:54.380Z,101847.00
2022-10-28T09:59:56.735Z,101843.00
2022-10-28T10:06:10.831Z,101830.00
2022-10-28T10:12:14.592Z,101829.00
2022-10-28T10:18:23.354Z,101826.00
2022-10-28T10:24:31.984Z,101825.00
2022-10-28T10:30:45.446Z,101815.00
2022-10-28T10:36:54.422Z,101803.00
2022-10-28T10:43:12.822Z,101808.00
2022-10-28T10:49:16.498Z,101805.00
2022-10-28T10:55:32.220Z,101798.00
2022-10-28T11:01:40.390Z,101793.00
2022-10-28T11:07:50.856Z,101790.00
2022-10-28T11:14:09.021Z,101766.00
2022-10-28T11:20:26.479Z,101679.00
2022-10-28T11:26:30.965Z,101654.00
2022-10-28T11:32:45.291Z,101654.00
2022-10-28T11:39:04.190Z,101653.00
2022-10-28T11:45:17.421Z,101636.00
2022-10-28T11:51:28.931Z,101715.00
2022-10-28T11:58:05.210Z,101762.00
2022-10-28T12:04:32.333Z,101742.00
2022-10-28T12:10:40.814Z,101681.00
2022-10-28T12:17:26.544Z,101737.00
2022-10-28T12:23:32.312Z,101719.00
2022-10-28T12:29:41.152Z,101725.00
2022-10-28T12:35:55.897Z,101715.00
2022-10-28T12:42:05.478Z,101721.00
2022-10-28T12:48:19.253Z,101711.00
2022-10-28T12:54:25.194Z,101711.00
2022-10-28T13:00:32.126Z,101707.00
2022-10-28T13:07:11.569Z,101709.00
2022-10-28T13:13:31.667Z,101703.00
2022-10-28T13:19:48.951Z,101695.00
2022-10-28T13:25:58.791Z,101700.00
2022-10-28T13:32:01.252Z,101695.00
2022-10-28T13:38:03.713Z,101692.00
2022-10-28T13:44:08.865Z,101696.00
2022-10-28T13:50:15.581Z,101689.00
2022-10-28T13:56:20.540Z,101689.00
2022-10-28T14:02:47.688Z,101682.00
2022-10-28T14:08:50.049Z,101675.00
2022-10-28T14:15:20.540Z,101682.00
2022-10-28T14:22:02.551Z,101677.00
2022-10-28T14:28:27.731Z,101681.00
2022-10-28T14:34:37.857Z,101677.00
2022-10-28T14:40:49.924Z,101687.00
2022-10-28T14:47:07.363Z,101675.00
2022-10-28T14:53:17.404Z,101670.00
2022-10-28T14:59:27.560Z,101676.00
2022-10-28T15:05:30.911Z,101680.00
2022-10-28T15:11:34.269Z,101676.00
2022-10-28T15:17:39.727Z,101679.00
2022-10-28T15:23:42.202Z,101686.00
2022-10-28T15:29:44.236Z,101678.00
2022-10-28T15:35:47.348Z,101683.00
2022-10-28T15:41:52.615Z,101686.00
2022-10-28T15:47:55.791Z,101680.00
2022-10-28T15:54:12.193Z,101674.00
2022-10-28T16:00:23.554Z,101681.00
2022-10-28T16:06:29.304Z,101678.00
2022-10-28T16:12:31.567Z,101680.00
2022-10-28T16:18:45.997Z,101685.00
2022-10-28T16:24:50.040Z,101688.00
2022-10-28T16:30:57.442Z,101685.00
2022-10-28T16:36:59.752Z,101681.00
2022-10-28T16:43:01.898Z,101680.00
2022-10-28T16:49:04.393Z,101681.00
2022-10-28T16:55:15.440Z,101679.00
2022-10-28T17:01:21.193Z,101679.00
2022-10-28T17:07:23.500Z,101681.00
2022-10-28T17:13:25.505Z,101682.00
2022-10-28T17:19:27.412Z,101676.00
2022-10-28T17:25:29.836Z,101672.00
2022-10-28T17:31:32.563Z,101679.00
2022-10-28T17:37:34.539Z,101669.00
2022-10-28T17:43:36.664Z,101665.00
2022-10-28T17:49:38.856Z,101666.00
2022-10-28T17:55:42.426Z,101667.00
2022-10-28T18:01:44.696Z,101653.00
2022-10-28T18:07:46.808Z,101655.00
2022-10-28T18:13:51.715Z,101649.00
2022-10-28T18:19:54.138Z,101647.00
2022-10-28T18:25:59.507Z,101648.00
2022-10-28T18:32:04.805Z,101649.00
2022-10-28T18:38:06.972Z,101647.00
2022-10-28T18:44:14.430Z,101654.00
2022-10-28T18:50:16.805Z,101651.00
2022-10-28T18:56:20.940Z,101653.00
2022-10-28T19:02:23.403Z,101658.00
2022-10-28T19:08:25.469Z,101661.00
2022-10-28T19:14:27.585Z,101669.00
2022-10-28T19:20:29.821Z,101664.00
2022-10-28T19:26:33.903Z,101667.00
2022-10-28T19:32:38.552Z,101658.00
2022-10-28T19:38:40.724Z,101668.00
2022-10-28T19:44:42.966Z,101672.00
2022-10-28T19:50:51.677Z,101670.00
2022-10-28T19:56:53.873Z,101682.00
2022-10-28T20:02:56.062Z,101671.00
2022-10-28T20:08:59.014Z,101673.00
2022-10-28T20:15:01.121Z,101668.00
2022-10-28T20:21:07.693Z,101673.00
2022-10-28T20:27:09.860Z,101665.00
2022-10-28T20:33:11.822Z,101672.00
2022-10-28T20:39:16.269Z,101669.00
2022-10-28T20:45:18.321Z,101664.00
2022-10-28T20:51:21.197Z,101666.00
2022-10-28T20:57:23.310Z,101666.00
2022-10-28T21:03:26.037Z,101670.00
2022-10-28T21:09:28.173Z,101661.00
2022-10-28T21:15:33.534Z,101659.00
2022-10-28T21:21:35.717Z,101661.00
2022-10-28T21:27:38.565Z,101653.00
2022-10-28T21:33:41.742Z,101652.00
2022-10-28T21:39:44.766Z,101648.00
2022-10-28T21:45:46.847Z,101630.00
2022-10-28T21:51:49.003Z,101640.00
2022-10-28T21:57:51.000Z,101643.00
2022-10-28T22:03:54.853Z,101635.00
2022-10-28T22:09:56.815Z,101630.00
2022-10-28T22:16:05.364Z,101629.00
2022-10-28T22:22:07.516Z,101634.00
2022-10-28T22:28:09.769Z,101627.00
2022-10-28T22:34:11.770Z,101617.00
2022-10-28T22:40:13.720Z,101623.00
2022-10-28T22:46:17.199Z,101615.00
2022-10-28T22:52:19.211Z,101614.00
2022-10-28T22:58:21.981Z,101619.00
2022-10-28T23:04:24.235Z,101608.00
2022-10-28T23:10:27.214Z,101614.00
2022-10-28T23:16:29.094Z,101623.00
2022-10-28T23:22:31.201Z,101620.00
2022-10-28T23:28:33.756Z,101623.00
2022-10-28T23:34:35.856Z,101623.00
2022-10-28T23:40:38.773Z,101616.00
2022-10-28T23:46:41.426Z,101602.00
2022-10-28T23:52:43.545Z,101604.00
2022-10-28T23:58:45.578Z,101601.00
